Time;durP1;ratioP1;P1;durP2;ratioP2;P2;SDS_P1;SDS_P2;PMS_P1;PMS_P2;Temp;Humidity;BMP_temperature;BMP_pressure;BME280_temperature;BME280_humidity;BME280_pressure;Samples;Min_cycle;Max_cycle;Signal;HPM_P1;HPM_P2
2022/10/06 00:00:50;;;;;;;7.05;4.80;;;;;;;11.10;92.60;99450.48;1764039;80;20922;-61
2022/10/06 00:03:23;;;;;;;5.15;4.60;;;;;;;11.11;92.62;99443.02;1758623;80;21016;-62
2022/10/06 00:05:50;;;;;;;5.92;4.85;;;;;;;11.12;92.62;99444.26;1758647;80;21056;-62
2022/10/06 00:08:18;;;;;;;7.45;5.40;;;;;;;11.14;92.67;99444.16;1758315;80;20905;-62
2022/10/06 00:10:45;;;;;;;4.87;4.05;;;;;;;11.17;92.72;99442.68;1760141;81;20926;-62
2022/10/06 00:13:12;;;;;;;5.23;4.70;;;;;;;11.19;92.72;99444.76;1763141;80;20909;-62
2022/10/06 00:15:38;;;;;;;5.47;4.53;;;;;;;11.22;92.85;99439.36;1759133;80;21830;-62
2022/10/06 00:18:05;;;;;;;5.50;4.33;;;;;;;11.25;92.80;99447.03;1748710;81;21275;-62
2022/10/06 00:20:32;;;;;;;7.97;5.12;;;;;;;11.27;92.87;99442.57;1761477;81;21504;-62
2022/10/06 00:22:59;;;;;;;5.42;4.62;;;;;;;11.31;92.91;99445.38;1763031;81;20912;-61
2022/10/06 00:25:27;;;;;;;6.47;4.12;;;;;;;11.33;92.94;99434.39;1764720;80;20906;-62
2022/10/06 00:27:54;;;;;;;6.00;4.62;;;;;;;11.37;93.08;99438.54;1751767;79;20906;-62
2022/10/06 00:30:24;;;;;;;5.55;4.70;;;;;;;11.42;93.01;99436.48;1770468;80;21052;-61
2022/10/06 00:32:57;;;;;;;5.12;4.08;;;;;;;11.44;92.95;99428.58;1771195;79;21585;-62
2022/10/06 00:35:25;;;;;;;6.22;4.75;;;;;;;11.46;92.93;99429.81;1785599;78;20901;-61
2022/10/06 00:37:52;;;;;;;6.75;4.30;;;;;;;11.45;92.88;99433.33;1786650;78;21491;-62
2022/10/06 00:40:20;;;;;;;7.28;4.22;;;;;;;11.43;92.88;99425.12;1765703;80;21057;-62
2022/10/06 00:42:57;;;;;;;;;;;;;;;11.39;92.83;99422.28;1748393;80;21046;-62
2022/10/06 00:45:40;;;;;;;7.10;4.25;;;;;;;11.36;92.81;99428.98;1794421;78;20132;-62
2022/10/06 00:48:12;;;;;;;6.10;4.50;;;;;;;11.30;92.77;99424.11;1784806;78;20928;-62
2022/10/06 00:50:40;;;;;;;6.03;4.28;;;;;;;11.25;92.73;99423.52;1783305;78;21447;-61
2022/10/06 00:53:07;;;;;;;7.30;4.17;;;;;;;11.21;92.73;99425.92;1754707;80;20900;-61
2022/10/06 00:55:34;;;;;;;4.47;3.75;;;;;;;11.16;92.79;99421.41;1738745;80;21101;-62
2022/10/06 00:58:01;;;;;;;6.70;4.67;;;;;;;11.13;92.76;99422.88;1766871;79;20917;-61
2022/10/06 01:00:28;;;;;;;6.30;4.25;;;;;;;11.08;92.76;99415.75;1771840;79;21834;-61
2022/10/06 01:03:00;;;;;;;4.47;4.05;;;;;;;11.02;92.65;99413.48;1786644;78;20991;-61
2022/10/06 01:05:31;;;;;;;6.95;4.70;;;;;;;10.97;92.83;99418.94;1790443;77;20878;-62
2022/10/06 01:07:58;;;;;;;6.20;3.98;;;;;;;10.94;92.79;99416.49;1786801;78;21037;-61
2022/10/06 01:10:25;;;;;;;6.97;4.53;;;;;;;10.90;92.87;99414.98;1780360;78;28790;-62
2022/10/06 01:12:51;;;;;;;5.27;3.87;;;;;;;10.86;92.91;99411.67;1780516;78;20988;-62
2022/10/06 01:15:20;;;;;;;7.40;4.70;;;;;;;10.78;93.06;99408.62;1782852;78;21582;-61
2022/10/06 01:18:12;;;;;;;6.45;4.53;;;;;;;10.80;92.95;99413.77;1786405;78;21494;-62
2022/10/06 01:20:42;;;;;;;5.37;4.87;;;;;;;10.76;92.90;99409.19;1757934;80;21881;-61
2022/10/06 01:23:10;;;;;;;7.92;4.20;;;;;;;10.72;92.90;99416.78;1749783;80;20932;-61
2022/10/06 01:25:37;;;;;;;7.85;4.50;;;;;;;10.68;92.92;99421.80;1771643;79;20947;-62
2022/10/06 01:28:06;;;;;;;5.83;4.50;;;;;;;10.66;93.07;99422.33;1771413;80;21965;-62
2022/10/06 01:30:49;;;;;;;7.35;4.72;;;;;;;10.63;93.05;99427.72;1762493;80;20974;-61
2022/10/06 01:33:15;;;;;;;7.37;4.58;;;;;;;10.61;93.06;99436.09;1772054;80;21089;-61
2022/10/06 01:35:44;;;;;;;5.72;4.80;;;;;;;10.59;93.06;99436.65;1769963;80;20927;-61
2022/10/06 01:38:11;;;;;;;7.22;4.87;;;;;;;10.57;93.23;99438.48;1769753;80;21006;-62
2022/10/06 01:40:38;;;;;;;5.60;4.90;;;;;;;10.56;93.18;99434.17;1771334;80;22208;-61
2022/10/06 01:43:05;;;;;;;6.03;5.20;;;;;;;10.52;93.07;99430.41;1773862;80;21202;-61
2022/10/06 01:45:31;;;;;;;6.95;4.53;;;;;;;10.48;93.02;99438.03;1767506;80;21630;-62
2022/10/06 01:47:58;;;;;;;7.53;5.20;;;;;;;10.44;93.06;99431.27;1776445;78;21612;-60
2022/10/06 01:50:25;;;;;;;7.05;5.00;;;;;;;10.42;93.17;99435.75;1744774;80;20982;-61
2022/10/06 01:52:51;;;;;;;5.60;4.30;;;;;;;10.40;93.15;99432.36;1746406;81;21031;-61
2022/10/06 01:55:18;;;;;;;5.97;4.35;;;;;;;10.37;93.13;99437.74;1737349;81;21085;-62
2022/10/06 01:57:45;;;;;;;6.33;4.57;;;;;;;10.36;93.31;99433.42;1768527;80;21034;-61
2022/10/06 02:00:12;;;;;;;5.78;4.67;;;;;;;10.34;93.40;99435.29;1766065;79;20934;-61
2022/10/06 02:02:39;;;;;;;7.00;4.87;;;;;;;10.34;93.45;99427.46;1768511;80;21625;-61
2022/10/06 02:05:07;;;;;;;5.45;4.05;;;;;;;10.33;93.47;99428.83;1769733;80;20980;-62
2022/10/06 02:07:36;;;;;;;;;;;;;;;10.33;93.55;99428.83;1772628;80;21605;-61
2022/10/06 02:10:05;;;;;;;9.30;4.70;;;;;;;10.32;93.60;99424.08;1767504;80;20997;-61
2022/10/06 02:12:33;;;;;;;7.80;4.97;;;;;;;10.31;93.71;99425.01;1771616;80;21515;-61
2022/10/06 02:15:00;;;;;;;4.92;4.42;;;;;;;10.32;93.69;99437.13;1773323;80;20903;-61
2022/10/06 02:17:28;;;;;;;4.90;4.40;;;;;;;10.31;93.69;99432.84;1759632;81;21472;-62
2022/10/06 02:19:54;;;;;;;6.05;4.70;;;;;;;10.32;93.72;99434.52;1754210;81;21051;-62
2022/10/06 02:22:21;;;;;;;6.13;4.10;;;;;;;10.33;93.75;99434.89;1753092;79;21031;-62
2022/10/06 02:24:48;;;;;;;8.33;5.28;;;;;;;10.33;93.85;99446.63;1759471;79;20974;-62
2022/10/06 02:27:15;;;;;;;5.75;4.53;;;;;;;10.34;93.80;99453.56;1757753;81;21460;-62
2022/10/06 02:29:41;;;;;;;7.83;4.83;;;;;;;10.35;93.77;99450.02;1758224;81;20988;-62
2022/10/06 02:32:08;;;;;;;7.33;5.13;;;;;;;10.36;93.88;99453.00;1757596;80;20954;-63
2022/10/06 02:34:35;;;;;;;7.13;5.07;;;;;;;10.38;93.98;99452.47;1760082;80;21101;-61
2022/10/06 02:37:01;;;;;;;6.45;5.33;;;;;;;10.42;94.08;99448.80;1759833;80;21473;-61
2022/10/06 02:39:28;;;;;;;7.33;5.07;;;;;;;10.45;94.26;99453.86;1758205;80;20966;-62
2022/10/06 02:41:54;;;;;;;5.27;4.57;;;;;;;10.52;94.38;99436.94;1759450;80;20994;-61
2022/10/06 02:44:23;;;;;;;9.93;5.60;;;;;;;10.61;94.37;99432.17;1759886;80;21527;-61
2022/10/06 02:46:51;;;;;;;8.23;4.62;;;;;;;10.67;94.30;99442.28;1759192;80;21799;-61
2022/10/06 02:49:18;;;;;;;5.37;4.85;;;;;;;10.70;94.14;99447.38;1760448;80;20957;-62
2022/10/06 02:51:44;;;;;;;8.17;4.80;;;;;;;10.69;94.03;99448.28;1758414;80;20935;-61
2022/10/06 02:54:11;;;;;;;8.83;4.85;;;;;;;10.68;94.06;99455.28;1756079;80;20993;-62
2022/10/06 02:56:38;;;;;;;6.05;4.83;;;;;;;10.66;94.08;99454.50;1758462;81;20977;-61
2022/10/06 02:59:04;;;;;;;7.62;4.72;;;;;;;10.69;94.28;99456.11;1749918;81;21078;-61
2022/10/06 03:01:31;;;;;;;5.40;4.77;;;;;;;10.75;94.34;99454.48;1735447;82;21050;-62
2022/10/06 03:03:58;;;;;;;6.90;4.45;;;;;;;10.80;94.46;99462.92;1733603;82;20957;-61
2022/10/06 03:06:28;;;;;;;8.83;4.75;;;;;;;10.86;94.58;99458.68;1736451;82;20999;-61
2022/10/06 03:09:02;;;;;;;6.50;4.75;;;;;;;10.98;94.41;99455.44;1714993;81;21025;-62
2022/10/06 03:11:39;;;;;;;6.50;4.67;;;;;;;11.04;94.56;99450.82;1736534;81;22027;-61
2022/10/06 03:14:06;;;;;;;6.28;4.20;;;;;;;11.11;94.79;99452.16;1735555;82;21504;-62
2022/10/06 03:16:37;;;;;;;;;;;;;;;11.22;94.95;99452.42;1735595;82;20963;-61
2022/10/06 03:19:05;;;;;;;4.37;3.98;;;;;;;11.32;95.12;99448.40;1731141;82;20131;-61
2022/10/06 03:21:39;;;;;;;5.37;4.03;;;;;;;11.43;95.18;99448.66;1734724;82;20951;-62
2022/10/06 03:24:07;;;;;;;7.70;4.03;;;;;;;11.56;95.25;99452.72;1748845;80;21212;-61
2022/10/06 03:26:38;;;;;;;5.35;3.70;;;;;;;11.69;95.24;99453.36;1732624;82;21425;-61
2022/10/06 03:29:05;;;;;;;4.35;3.55;;;;;;;11.78;95.23;99456.28;1735554;81;20942;-61
2022/10/06 03:31:33;;;;;;;6.67;3.62;;;;;;;11.89;95.30;99457.50;1744344;81;21429;-61
2022/10/06 03:33:59;;;;;;;3.30;3.00;;;;;;;11.98;95.32;99467.43;1763260;80;21461;-62
2022/10/06 03:36:31;;;;;;;6.95;3.42;;;;;;;12.07;95.36;99474.74;1757533;81;21211;-61
2022/10/06 03:38:58;;;;;;;5.05;3.17;;;;;;;12.18;95.45;99465.81;1771125;79;20910;-61
2022/10/06 03:41:29;;;;;;;4.37;3.50;;;;;;;12.29;95.45;99475.22;1802296;79;20966;-62
2022/10/06 03:43:58;;;;;;;5.97;3.40;;;;;;;12.37;95.35;99484.39;1796974;78;20890;-62
2022/10/06 03:46:28;;;;;;;5.05;3.15;;;;;;;12.48;95.27;99480.67;1806864;78;20993;-63
2022/10/06 03:49:00;;;;;;;3.30;3.00;;;;;;;12.48;95.27;99480.67;1810832;77;21334;-62
2022/10/06 03:51:30;;;;;;;7.00;3.72;;;;;;;12.53;95.38;99479.94;1808366;78;20907;-62
2022/10/06 03:53:58;;;;;;;6.60;2.72;;;;;;;12.64;95.15;99481.45;1814022;78;20974;-62
2022/10/06 03:56:28;;;;;;;5.47;3.42;;;;;;;12.64;95.15;99481.45;1809035;77;21464;-63
2022/10/06 03:58:59;;;;;;;4.05;3.50;;;;;;;12.60;95.46;99465.53;1808633;78;20932;-63
2022/10/06 04:01:33;;;;;;;6.15;2.92;;;;;;;12.72;95.33;99493.63;1801745;78;22032;-62
2022/10/06 04:04:01;;;;;;;4.40;3.15;;;;;;;12.67;95.38;99479.96;1803769;78;21443;-62
2022/10/06 04:06:31;;;;;;;5.20;3.25;;;;;;;12.71;95.40;99467.52;1809088;78;20918;-62
2022/10/06 04:08:58;;;;;;;5.22;3.00;;;;;;;12.85;95.35;99488.95;1809324;78;21520;-61
2022/10/06 04:11:31;;;;;;;3.85;3.22;;;;;;;12.82;95.30;99481.28;1804082;78;21026;-62
2022/10/06 04:14:04;;;;;;;4.78;3.02;;;;;;;12.88;95.22;99497.94;1804610;78;22357;-62
2022/10/06 04:16:43;;;;;;;5.53;3.45;;;;;;;12.88;95.12;99490.08;1807962;78;20973;-63
2022/10/06 04:19:12;;;;;;;3.35;2.80;;;;;;;12.88;95.13;99501.86;1806480;79;20897;-62
2022/10/06 04:21:41;;;;;;;6.03;3.33;;;;;;;12.89;95.13;99494.41;1807309;78;21427;-62
2022/10/06 04:24:15;;;;;;;3.37;2.95;;;;;;;12.88;95.11;99494.88;1807205;79;20962;-61
2022/10/06 04:26:43;;;;;;;4.60;2.92;;;;;;;12.89;95.17;99497.86;1815082;78;21028;-61
2022/10/06 04:29:10;;;;;;;4.25;2.92;;;;;;;12.90;95.08;99511.32;1817121;78;21416;-61
2022/10/06 04:31:41;;;;;;;5.20;3.30;;;;;;;12.89;95.12;99504.41;1816026;78;20941;-62
2022/10/06 04:34:12;;;;;;;5.25;3.25;;;;;;;12.91;95.15;99499.06;1814867;78;21074;-61
2022/10/06 04:36:42;;;;;;;6.42;3.00;;;;;;;12.92;95.10;99492.91;1815078;78;20885;-61
2022/10/06 04:39:11;;;;;;;3.72;2.92;;;;;;;12.94;95.08;99508.91;1818317;78;21032;-61
2022/10/06 04:41:40;;;;;;;3.10;2.80;;;;;;;12.94;95.07;99512.00;1780401;79;21647;-60
2022/10/06 04:44:09;;;;;;;3.37;2.85;;;;;;;12.94;95.00;99515.94;1764256;80;20954;-61
2022/10/06 04:46:36;;;;;;;3.87;3.30;;;;;;;12.94;95.05;99518.55;1764241;80;21559;-60
2022/10/06 04:49:03;;;;;;;3.83;2.98;;;;;;;12.93;95.01;99510.30;1762068;80;21551;-61
2022/10/06 04:51:30;;;;;;;5.35;2.95;;;;;;;12.93;95.01;99522.92;1765520;80;21590;-60
2022/10/06 04:53:57;;;;;;;7.37;2.85;;;;;;;12.94;94.98;99523.80;1765711;80;20887;-60
2022/10/06 04:56:29;;;;;;;3.77;2.87;;;;;;;12.93;94.95;99516.84;1766673;80;20937;-61
2022/10/06 04:58:57;;;;;;;5.75;3.08;;;;;;;12.95;94.97;99530.71;1770959;80;22685;-60
2022/10/06 05:01:29;;;;;;;4.35;2.80;;;;;;;12.95;94.92;99534.64;1763581;80;21503;-61
2022/10/06 05:03:59;;;;;;;4.33;3.15;;;;;;;12.95;94.86;99528.92;1762117;80;21139;-61
2022/10/06 05:06:32;;;;;;;3.50;2.60;;;;;;;12.96;94.89;99532.39;1753184;81;20898;-61
2022/10/06 05:09:05;;;;;;;4.25;2.40;;;;;;;12.96;94.83;99529.77;1778891;79;21000;-61
2022/10/06 05:11:34;;;;;;;4.62;2.92;;;;;;;12.92;94.66;99544.00;1776198;79;20938;-61
2022/10/06 05:14:01;;;;;;;10.82;2.90;;;;;;;12.87;94.56;99543.42;1759232;80;21468;-61
2022/10/06 05:16:30;;;;;;;3.58;2.60;;;;;;;12.84;94.58;99548.85;1740703;80;21107;-61
2022/10/06 05:18:57;;;;;;;3.90;2.87;;;;;;;12.81;94.60;99549.03;1817045;78;21409;-60
2022/10/06 05:21:28;;;;;;;3.60;2.58;;;;;;;12.80;94.70;99549.95;1811633;78;27167;-60
2022/10/06 05:23:54;;;;;;;2.92;2.47;;;;;;;12.85;94.83;99554.45;1810067;78;20913;-61
2022/10/06 05:26:24;;;;;;;5.53;3.40;;;;;;;12.91;94.84;99560.64;1792148;78;20925;-60
2022/10/06 05:28:51;;;;;;;5.85;3.27;;;;;;;12.99;94.98;99563.65;1779863;79;21103;-62
2022/10/06 05:31:22;;;;;;;3.77;2.65;;;;;;;13.12;94.96;99564.61;1771323;79;20939;-61
2022/10/06 05:33:49;;;;;;;4.37;2.75;;;;;;;13.17;94.74;99567.80;1779286;80;20960;-62
2022/10/06 05:36:19;;;;;;;7.85;2.70;;;;;;;13.19;94.66;99571.18;1776393;79;21487;-61
2022/10/06 05:38:46;;;;;;;6.30;2.25;;;;;;;13.24;94.66;99571.36;1755997;80;20902;-63
2022/10/06 05:41:20;;;;;;;4.67;2.58;;;;;;;13.25;94.63;99575.21;1779051;79;21143;-62
2022/10/06 05:43:47;;;;;;;7.67;3.30;;;;;;;13.27;94.59;99582.52;1773752;79;20985;-63
2022/10/06 05:46:19;;;;;;;3.62;2.55;;;;;;;13.30;94.61;99595.91;1736855;81;20981;-62
2022/10/06 05:48:51;;;;;;;4.72;2.55;;;;;;;13.33;94.65;99590.48;1770180;80;21504;-64
2022/10/06 05:51:19;;;;;;;8.65;3.27;;;;;;;13.34;94.61;99595.65;1771168;80;21047;-62
2022/10/06 05:53:47;;;;;;;3.00;2.33;;;;;;;13.35;94.63;99593.86;1770672;79;20989;-63
2022/10/06 05:56:18;;;;;;;17.30;12.90;;;;;;;13.37;94.68;99599.87;1767971;80;37681;-63
2022/10/06 05:58:48;;;;;;;8.80;7.22;;;;;;;13.40;94.63;99607.55;1771305;79;22297;-63
2022/10/06 06:01:29;;;;;;;6.55;5.05;;;;;;;13.40;94.58;99618.04;1769173;80;21000;-63
2022/10/06 06:04:05;;;;;;;4.15;3.02;;;;;;;13.42;94.64;99616.17;1769429;80;21476;-63
2022/10/06 06:06:39;;;;;;;3.42;2.52;;;;;;;13.44;94.69;99611.66;1770668;79;21106;-61
2022/10/06 06:09:18;;;;;;;5.75;2.80;;;;;;;13.46;94.71;99617.66;1772286;79;20957;-62
2022/10/06 06:11:51;;;;;;;3.02;2.27;;;;;;;13.51;94.75;99628.72;1771323;80;20902;-61
2022/10/06 06:15:59;;;;;;;7.22;2.45;;;;;;;13.57;94.65;99630.96;1769944;79;21002;-61
2022/10/06 06:16:51;;;;;;;3.67;2.12;;;;;;;13.61;94.63;99636.41;1763919;80;20910;-61
2022/10/06 06:19:18;;;;;;;2.60;2.02;;;;;;;13.64;94.66;99648.03;1772955;80;22413;-61
2022/10/06 06:21:45;;;;;;;2.92;2.15;;;;;;;13.69;94.63;99640.33;1767518;79;21004;-61
2022/10/06 06:24:11;;;;;;;3.23;2.20;;;;;;;13.74;94.61;99660.58;1768150;80;21694;-61
2022/10/06 06:26:38;;;;;;;3.20;2.00;;;;;;;13.79;94.61;99665.08;1773280;80;20989;-61
2022/10/06 06:29:05;;;;;;;2.65;2.05;;;;;;;13.83;94.53;99671.81;1754718;81;21099;-61
2022/10/06 06:31:36;;;;;;;3.08;1.65;;;;;;;13.86;94.36;99667.69;1755369;81;21038;-62
2022/10/06 06:34:05;;;;;;;3.22;1.70;;;;;;;13.87;94.28;99677.27;1760106;81;20902;-62
2022/10/06 06:36:44;;;;;;;5.40;2.02;;;;;;;13.88;94.26;99681.56;1733006;81;20918;-61
2022/10/06 06:39:12;;;;;;;2.72;1.42;;;;;;;13.89;94.31;99696.36;1815333;78;20932;-62
2022/10/06 06:41:44;;;;;;;2.95;1.60;;;;;;;13.91;94.30;99684.00;1812998;78;21005;-62
2022/10/06 06:44:12;;;;;;;3.83;1.47;;;;;;;13.98;94.30;99691.05;1816254;78;21054;-61
2022/10/06 06:46:42;;;;;;;5.72;1.52;;;;;;;14.07;94.34;99699.18;1806687;78;20969;-61
2022/10/06 06:49:10;;;;;;;2.65;1.50;;;;;;;14.20;94.06;99702.34;1812893;78;20933;-61
2022/10/06 06:51:40;;;;;;;1.70;1.27;;;;;;;14.33;93.90;99711.14;1817094;78;21529;-62
2022/10/06 06:54:09;;;;;;;2.17;1.17;;;;;;;14.45;93.70;99711.70;1812965;78;21483;-61
2022/10/06 06:56:37;;;;;;;4.62;1.62;;;;;;;14.52;93.57;99716.95;1816137;77;21177;-61
2022/10/06 06:59:11;;;;;;;4.35;1.20;;;;;;;14.76;93.77;99721.60;1814645;78;21480;-61
2022/10/06 07:01:45;;;;;;;3.40;1.25;;;;;;;14.98;93.63;99728.46;1815001;78;21431;-61
2022/10/06 07:04:14;;;;;;;1.15;1.00;;;;;;;15.08;93.35;99731.31;1808857;78;20933;-62
2022/10/06 07:06:46;;;;;;;1.12;1.00;;;;;;;15.23;93.15;99733.39;1811958;78;21561;-61
2022/10/06 07:09:11;;;;;;;2.83;1.00;;;;;;;15.31;92.73;99736.36;1815707;78;22033;-61
2022/10/06 07:11:39;;;;;;;3.37;0.88;;;;;;;15.27;92.24;99751.99;1818869;78;21420;-62
2022/10/06 07:14:13;;;;;;;6.10;1.05;;;;;;;15.17;91.71;99745.17;1820752;78;20830;-61
2022/10/06 07:25:06;;;;;;;2.40;0.78;;;;;;;14.89;90.17;99772.41;1806917;78;20885;-62
2022/10/06 07:27:46;;;;;;;2.30;0.85;;;;;;;14.77;89.92;99779.78;1809156;78;20959;-62
2022/10/06 07:30:20;;;;;;;4.70;1.15;;;;;;;14.82;90.39;99777.71;1815816;77;22120;-61
2022/10/06 07:32:49;;;;;;;3.52;1.20;;;;;;;14.98;91.06;99790.25;1808021;77;21508;-61
2022/10/06 07:35:19;;;;;;;2.02;1.00;;;;;;;15.18;91.19;99785.48;1820241;78;21631;-62
2022/10/06 07:37:46;;;;;;;11.28;1.82;;;;;;;15.40;90.35;99793.66;1813341;77;21598;-61
2022/10/06 07:40:13;;;;;;;;;;;;;;;15.52;89.96;99801.68;1818889;78;21509;-62
2022/10/06 07:42:54;;;;;;;6.15;1.30;;;;;;;15.62;89.85;99819.84;1811768;78;20451;-61
2022/10/06 07:48:18;;;;;;;3.00;1.05;;;;;;;15.70;88.78;99816.26;1809021;78;21063;-62
2022/10/06 07:50:48;;;;;;;4.50;0.85;;;;;;;15.84;87.25;99809.59;1757418;81;20891;-62
2022/10/06 07:53:17;;;;;;;3.98;0.90;;;;;;;15.78;87.72;99832.38;1775106;80;21003;-62
2022/10/06 07:55:45;;;;;;;3.75;0.70;;;;;;;15.69;87.06;99823.80;1772497;80;20993;-62
2022/10/06 07:58:22;;;;;;;3.08;1.07;;;;;;;15.73;86.41;99833.16;1772664;80;20866;-62
2022/10/06 08:00:51;;;;;;;3.45;0.90;;;;;;;15.75;86.44;99837.86;1770829;80;21908;-62
2022/10/06 08:03:19;;;;;;;8.08;0.98;;;;;;;15.50;83.99;99840.41;1768202;80;20949;-62
2022/10/06 08:05:52;;;;;;;3.40;0.82;;;;;;;15.38;85.12;99852.10;1775965;80;21030;-62
2022/10/06 08:08:19;;;;;;;2.20;0.70;;;;;;;15.44;84.85;99841.17;1776018;79;21886;-62
2022/10/06 08:10:55;;;;;;;5.97;1.10;;;;;;;15.41;84.94;99853.22;1777912;79;20903;-63
2022/10/06 08:13:22;;;;;;;5.78;0.90;;;;;;;15.61;85.23;99851.06;1774684;79;21001;-61
2022/10/06 08:15:50;;;;;;;4.40;0.70;;;;;;;15.72;84.71;99864.39;1757746;81;20843;-61
2022/10/06 08:18:19;;;;;;;3.10;0.98;;;;;;;15.88;83.92;99869.48;1765745;81;21467;-61
2022/10/06 08:20:46;;;;;;;2.40;0.80;;;;;;;15.80;84.17;99861.26;1760938;81;20994;-62
2022/10/06 08:23:13;;;;;;;4.42;1.27;;;;;;;15.87;84.09;99873.88;1761910;81;20954;-63
2022/10/06 08:25:53;;;;;;;3.02;1.02;;;;;;;16.01;84.44;99886.61;1762905;81;21152;-62
2022/10/06 08:28:21;;;;;;;3.62;1.12;;;;;;;16.14;83.52;99891.43;1758096;80;20982;-61
2022/10/06 08:30:50;;;;;;;3.87;0.90;;;;;;;16.13;82.58;99887.09;1760200;81;20938;-62
2022/10/06 08:33:16;;;;;;;2.45;0.78;;;;;;;16.15;83.28;99898.38;1765186;81;21016;-62
2022/10/06 08:35:43;;;;;;;3.83;1.02;;;;;;;16.10;81.64;99911.00;1762783;81;21337;-62
2022/10/06 08:38:09;;;;;;;6.92;1.45;;;;;;;15.99;82.46;99895.08;1758833;80;21034;-61
2022/10/06 08:40:36;;;;;;;3.00;1.05;;;;;;;15.94;82.31;99905.10;1765803;80;20875;-62
2022/10/06 08:43:03;;;;;;;5.75;1.32;;;;;;;15.92;82.59;99920.15;1759037;81;21520;-62
2022/10/06 08:45:34;;;;;;;2.20;0.93;;;;;;;15.86;82.05;99924.87;1758237;81;21650;-63
2022/10/06 08:48:12;;;;;;;6.37;1.20;;;;;;;15.74;81.79;99936.22;1750593;81;20898;-63
2022/10/06 08:51:06;;;;;;;3.67;1.05;;;;;;;15.83;82.09;99934.77;1758458;81;21064;-62
2022/10/06 08:53:45;;;;;;;3.98;1.00;;;;;;;16.09;82.27;99930.40;1756160;80;21712;-63
2022/10/06 08:56:17;;;;;;;4.85;1.12;;;;;;;16.40;81.76;99943.66;1765838;81;21008;-64
2022/10/06 08:58:54;;;;;;;4.85;1.00;;;;;;;16.60;80.13;99950.20;1760013;81;20953;-64
2022/10/06 09:01:32;;;;;;;4.25;1.00;;;;;;;16.64;80.26;99958.29;1727894;81;21401;-62
2022/10/06 09:04:06;;;;;;;3.55;1.47;;;;;;;16.56;80.61;99960.61;1760197;81;21111;-63
2022/10/06 09:07:03;;;;;;;3.12;1.10;;;;;;;16.39;77.26;99969.66;1759537;81;20961;-63
2022/10/06 09:10:07;;;;;;;4.55;1.17;;;;;;;16.24;77.72;99971.51;1774169;80;21029;-64
2022/10/06 09:12:47;;;;;;;5.28;1.02;;;;;;;16.31;79.06;99978.55;1769676;80;21473;-64
2022/10/06 09:15:49;;;;;;;6.65;1.65;;;;;;;16.49;79.60;99983.05;1776309;80;20907;-63
2022/10/06 09:18:30;;;;;;;5.15;1.02;;;;;;;16.54;79.24;99979.63;1752398;80;21100;-62
2022/10/06 09:21:03;;;;;;;8.18;1.12;;;;;;;16.42;78.16;99984.42;1777653;79;21013;-63
2022/10/06 09:23:48;;;;;;;9.43;1.45;;;;;;;16.17;77.95;100007.13;1777605;80;20954;-62
2022/10/06 09:26:22;;;;;;;9.43;1.67;;;;;;;16.08;78.20;100007.73;1770119;78;20914;-63
2022/10/06 09:28:54;;;;;;;4.78;1.37;;;;;;;15.97;77.39;100002.33;1764206;80;20964;-63
2022/10/06 09:31:33;;;;;;;9.25;1.82;;;;;;;15.93;77.55;100016.63;1761585;80;21099;-62
2022/10/06 09:34:22;;;;;;;3.27;1.22;;;;;;;15.92;77.52;100020.22;1737343;81;20964;-63
2022/10/06 09:37:12;;;;;;;5.35;1.30;;;;;;;15.93;77.12;100037.69;1745518;80;20898;-64
2022/10/06 09:39:43;;;;;;;4.70;1.25;;;;;;;16.14;77.69;100036.31;1758752;80;20965;-60
2022/10/06 09:42:19;;;;;;;4.50;0.98;;;;;;;16.54;77.52;100049.48;1738383;80;21033;-60
2022/10/06 09:45:06;;;;;;;6.55;1.32;;;;;;;16.67;75.90;100034.53;1766469;80;21080;-60
2022/10/06 09:47:39;;;;;;;7.80;1.15;;;;;;;16.46;75.22;100043.87;1767242;80;20946;-62
2022/10/06 09:50:20;;;;;;;7.35;1.70;;;;;;;16.20;75.80;100055.66;1755428;80;21449;-62
2022/10/06 09:53:03;;;;;;;9.43;1.60;;;;;;;16.34;75.20;100058.23;1755259;80;20895;-61
2022/10/06 09:55:32;;;;;;;4.92;1.30;;;;;;;16.55;75.89;100066.97;1760752;80;20919;-60
2022/10/06 09:58:00;;;;;;;4.05;1.42;;;;;;;16.73;75.54;100057.00;1751987;80;21016;-62
2022/10/06 10:00:38;;;;;;;5.87;1.60;;;;;;;16.70;74.68;100073.03;1747939;80;22107;-61
2022/10/06 10:03:10;;;;;;;7.05;1.40;;;;;;;16.66;74.84;100084.23;1744324;80;20965;-61
2022/10/06 10:05:47;;;;;;;7.47;1.47;;;;;;;16.65;74.76;100087.83;1749766;80;20966;-61
2022/10/06 10:08:24;;;;;;;6.08;1.90;;;;;;;16.49;74.39;100080.56;1735921;81;20989;-61
2022/10/06 10:12:23;;;;;;;10.45;1.60;;;;;;;16.44;74.03;100097.15;1744291;81;21085;-61
2022/10/06 10:13:43;;;;;;;5.58;1.30;;;;;;;16.30;73.52;100098.92;1738678;81;20962;-61
2022/10/06 10:16:15;;;;;;;3.55;1.17;;;;;;;16.09;73.33;100110.35;1741330;81;21060;-61
2022/10/06 10:18:44;;;;;;;5.60;1.17;;;;;;;16.25;73.80;100123.40;1736599;81;21575;-61
2022/10/06 10:21:16;;;;;;;5.05;1.57;;;;;;;16.43;73.40;100131.05;1755056;80;21436;-61
2022/10/06 10:23:49;;;;;;;7.10;1.52;;;;;;;16.87;74.24;100118.08;1755418;80;21115;-62
2022/10/06 10:26:38;;;;;;;11.22;2.10;;;;;;;17.25;73.69;100123.85;1763264;80;20966;-62
2022/10/06 10:29:48;;;;;;;4.65;1.20;;;;;;;17.42;73.45;100134.09;1753576;80;20958;-61
2022/10/06 10:32:33;;;;;;;6.80;1.95;;;;;;;17.57;72.76;100131.72;1733612;81;20907;-61
2022/10/06 10:35:20;;;;;;;5.12;1.52;;;;;;;17.61;72.57;100141.09;1725943;81;21733;-61
2022/10/06 10:38:07;;;;;;;8.00;2.00;;;;;;;17.63;71.82;100153.73;1743362;80;21124;-61
2022/10/06 10:40:39;;;;;;;7.25;1.35;;;;;;;17.66;71.98;100153.51;1729495;80;28700;-61
2022/10/06 10:43:17;;;;;;;8.58;1.77;;;;;;;17.56;70.95;100167.00;1759164;80;20950;-61
2022/10/06 10:46:06;;;;;;;9.38;1.77;;;;;;;17.31;70.29;100153.33;1738975;81;20969;-61
2022/10/06 10:49:00;;;;;;;7.03;1.75;;;;;;;17.04;69.78;100169.22;1744095;81;21633;-61
2022/10/06 10:51:38;;;;;;;8.05;1.47;;;;;;;16.84;70.08;100174.98;1745919;81;21264;-61
2022/10/06 10:54:23;;;;;;;6.83;1.57;;;;;;;16.58;69.96;100174.88;1735301;81;20925;-61
2022/10/06 10:56:51;;;;;;;4.47;1.17;;;;;;;16.30;69.56;100196.41;1759590;80;21633;-62
2022/10/06 10:59:38;;;;;;;9.48;1.45;;;;;;;16.08;68.66;100189.48;1754181;80;21079;-61
2022/10/06 11:02:20;;;;;;;6.35;1.95;;;;;;;15.98;69.72;100191.83;1738815;81;21013;-60
2022/10/06 11:04:52;;;;;;;10.25;1.98;;;;;;;15.97;69.99;100194.58;1756548;78;21855;-61
2022/10/06 11:07:38;;;;;;;5.78;1.05;;;;;;;16.00;69.98;100189.12;1756754;80;21507;-61
2022/10/06 11:10:22;;;;;;;11.22;1.52;;;;;;;16.29;70.61;100201.28;1741679;81;21089;-62
2022/10/06 11:13:10;;;;;;;6.50;1.82;;;;;;;16.58;70.19;100205.64;1731319;81;21007;-62
2022/10/06 11:16:36;;;;;;;12.70;1.95;;;;;;;16.49;69.11;100208.40;1744559;80;21044;-62
2022/10/06 11:19:23;;;;;;;7.05;1.80;;;;;;;16.21;68.92;100219.37;1751027;80;20991;-62
2022/10/06 11:22:04;;;;;;;7.83;1.40;;;;;;;15.86;68.37;100218.46;1756978;80;20992;-63
2022/10/06 11:25:18;;;;;;;6.65;1.98;;;;;;;15.68;68.91;100211.67;1751156;80;20957;-61
2022/10/06 11:28:23;;;;;;;4.58;1.42;;;;;;;15.80;69.24;100220.16;1760263;80;20942;-63
2022/10/06 11:31:35;;;;;;;6.83;1.30;;;;;;;15.94;69.09;100219.31;1744084;81;21548;-62
2022/10/06 11:34:05;;;;;;;8.53;1.37;;;;;;;16.07;69.32;100214.12;1743420;80;21754;-63
2022/10/06 11:36:55;;;;;;;4.97;1.27;;;;;;;16.30;68.78;100221.45;1743300;81;21631;-63
2022/10/06 11:39:38;;;;;;;2.05;0.80;;;;;;;16.22;68.12;100221.08;1743504;81;20943;-62
2022/10/06 11:42:25;;;;;;;7.30;1.75;;;;;;;16.22;68.07;100226.34;1743494;81;21480;-62
2022/10/06 11:45:04;;;;;;;4.58;1.30;;;;;;;16.15;67.92;100240.83;1682675;83;21030;-63
2022/10/06 11:48:03;;;;;;;6.20;1.30;;;;;;;16.03;68.12;100240.28;1678654;84;21869;-61
2022/10/06 11:50:43;;;;;;;7.72;1.80;;;;;;;16.05;67.46;100252.90;1602480;87;20998;-62
2022/10/06 11:53:38;;;;;;;6.78;1.57;;;;;;;16.05;68.20;100252.90;1632312;86;20959;-62
2022/10/06 11:56:22;;;;;;;6.87;1.62;;;;;;;16.13;68.10;100253.24;1622573;86;20910;-61
2022/10/06 11:58:57;;;;;;;6.10;1.80;;;;;;;16.17;67.90;100260.03;1624879;86;21007;-62
2022/10/06 12:01:37;;;;;;;8.53;1.70;;;;;;;16.14;67.99;100265.49;1624398;86;21979;-62
2022/10/06 12:04:14;;;;;;;7.80;1.62;;;;;;;16.11;67.79;100267.00;1630402;86;20972;-62
2022/10/06 12:06:49;;;;;;;6.42;1.90;;;;;;;16.12;67.70;100273.95;1606741;86;20967;-62
2022/10/06 12:09:38;;;;;;;3.90;1.25;;;;;;;15.97;67.78;100260.42;1624152;86;21023;-61